Terminal Aerodrome Forecast
Issued by NWS

Home | Current Version | Previous Version | Text Only | Print | Product List | Glossary On
Versions: 1 2 3 4 5 6 7 8 9 10 11 12 13 14
000
FTUS41 KRNK 230704 AAA
TAFLWB
TAF AMD
KLWB 230704Z 2307/2406 VRB03KT 6SM -SHRA OVC040
     FM230900 20004KT P6SM OVC015
      TEMPO 2309/2311 4SM -SHRA OVC007
     FM231100 20004KT P6SM OVC015
     FM231400 24012KT P6SM BKN040
     FM240000 24010KT 4SM -SHRA BKN050=

USA.gov is the U.S. government's official web portal to all federal, state and local government web resources and services.